Time;durP1;ratioP1;P1;durP2;ratioP2;P2;SDS_P1;SDS_P2;PMS_P1;PMS_P2;Temp;Humidity;BMP_temperature;BMP_pressure;BME280_temperature;BME280_humidity;BME280_pressure;Samples;Min_cycle;Max_cycle;Signal;HPM_P1;HPM_P2
2021/11/06 00:01:46;;;;;;;13.85;9.98;;;;;;;7.96;73.86;101223.83;2173170;81;32405;-63
2021/11/06 00:04:48;;;;;;;12.05;9.55;;;;;;;7.96;73.97;101222.97;2150413;82;34173;-63
2021/11/06 00:07:50;;;;;;;12.53;9.18;;;;;;;7.98;73.95;101219.81;2150930;82;29162;-63
2021/11/06 00:10:52;;;;;;;13.13;8.83;;;;;;;7.98;73.91;101214.47;2150712;82;27692;-62
2021/11/06 00:13:54;;;;;;;41.30;19.73;;;;;;;7.99;74.04;101219.75;2170836;81;29073;-67
2021/11/06 00:16:55;;;;;;;34.73;17.02;;;;;;;8.01;73.96;101219.73;2182672;81;31448;-68
2021/11/06 00:19:57;;;;;;;28.45;14.70;;;;;;;8.01;74.02;101221.94;2182427;81;34082;-63
2021/11/06 00:22:59;;;;;;;22.50;13.10;;;;;;;8.03;73.92;101226.78;2182460;81;29079;-62
2021/11/06 00:26:01;;;;;;;22.55;13.75;;;;;;;8.05;73.93;101230.73;2183177;80;27675;-62
2021/11/06 00:29:04;;;;;;;24.35;13.58;;;;;;;8.08;73.99;101227.14;2228345;79;29517;-64
2021/11/06 00:32:08;;;;;;;22.32;12.25;;;;;;;8.10;73.96;101228.84;2180260;81;31456;-68
2021/11/06 00:35:11;;;;;;;17.75;11.63;;;;;;;8.09;73.78;101229.75;2192010;81;34057;-65
2021/11/06 00:38:13;;;;;;;15.75;11.35;;;;;;;8.10;73.87;101226.64;2192278;79;29038;-68
2021/11/06 00:41:15;;;;;;;21.48;13.55;;;;;;;8.11;73.86;101227.93;2192024;81;28162;-66
2021/11/06 00:44:17;;;;;;;25.62;14.93;;;;;;;8.13;73.92;101230.11;2191860;81;29975;-67
2021/11/06 00:47:19;;;;;;;17.70;12.33;;;;;;;8.16;73.89;101234.48;2191692;81;31882;-65
2021/11/06 00:50:21;;;;;;;18.30;11.25;;;;;;;8.19;73.91;101238.42;2192276;81;33736;-68
2021/11/06 00:53:23;;;;;;;12.45;10.28;;;;;;;8.21;73.87;101236.59;2195926;79;30275;-64
2021/11/06 00:56:24;;;;;;;15.10;9.75;;;;;;;8.22;73.80;101235.68;2187587;81;27618;-63
2021/11/06 00:59:26;;;;;;;12.40;9.48;;;;;;;8.22;73.76;101235.68;2228380;79;29864;-68
2021/11/06 01:02:32;;;;;;;13.45;9.63;;;;;;;8.24;73.68;101236.52;2187260;81;32266;-62
2021/11/06 01:05:34;;;;;;;13.68;9.75;;;;;;;8.25;73.70;101240.05;2228245;79;33739;-62
2021/11/06 01:08:37;;;;;;;11.95;8.95;;;;;;;8.26;73.70;101240.47;2187801;81;29402;-66
2021/11/06 01:11:40;;;;;;;15.18;9.78;;;;;;;8.28;73.79;101241.31;2228945;79;27872;-64
2021/11/06 01:14:41;;;;;;;13.53;8.18;;;;;;;8.29;73.68;101248.41;2188248;81;29643;-67
2021/11/06 01:17:44;;;;;;;10.25;7.95;;;;;;;8.29;73.60;101245.27;2212996;79;32236;-63
2021/11/06 01:20:46;;;;;;;11.03;8.40;;;;;;;8.28;73.65;101243.52;2150303;82;32999;-63
2021/11/06 01:23:48;;;;;;;9.78;7.87;;;;;;;8.28;73.69;101234.17;2192520;81;30113;-64
2021/11/06 01:26:50;;;;;;;10.63;7.78;;;;;;;8.28;73.70;101232.84;2192238;80;27672;-64
2021/11/06 01:29:51;;;;;;;11.35;8.38;;;;;;;8.27;73.56;101233.78;2192014;81;29176;-64
2021/11/06 01:32:54;;;;;;;12.93;8.28;;;;;;;8.25;73.62;101235.61;2191983;81;32329;-66
2021/11/06 01:35:55;;;;;;;12.93;8.45;;;;;;;8.26;73.57;101237.80;2192223;81;34122;-65
2021/11/06 01:38:57;;;;;;;12.28;8.08;;;;;;;8.24;73.56;101233.86;2192613;81;29390;-66
2021/11/06 01:41:59;;;;;;;10.60;7.80;;;;;;;8.24;73.61;101228.95;2197882;79;27597;-65
2021/11/06 01:45:01;;;;;;;12.33;7.78;;;;;;;8.23;73.64;101235.20;2187538;81;29877;-66
2021/11/06 01:48:04;;;;;;;12.80;8.63;;;;;;;8.23;73.64;101237.88;2196988;79;31863;-67
2021/11/06 01:51:06;;;;;;;9.58;7.80;;;;;;;8.23;73.67;101235.20;2192832;81;33580;-66
2021/11/06 01:54:07;;;;;;;13.65;8.10;;;;;;;8.23;73.58;101237.88;2192376;81;29889;-66
2021/11/06 01:57:10;;;;;;;8.68;6.92;;;;;;;8.21;73.53;101238.79;2192458;81;27735;-67
2021/11/06 02:00:17;;;;;;;10.13;6.95;;;;;;;8.18;73.49;101236.22;2192444;81;29940;-67
2021/11/06 02:03:19;;;;;;;11.25;7.00;;;;;;;8.15;73.44;101240.73;2149273;82;31031;-64
2021/11/06 02:06:21;;;;;;;13.28;7.60;;;;;;;8.11;73.36;101243.08;2192577;81;33731;-66
2021/11/06 02:09:24;;;;;;;10.93;7.40;;;;;;;8.05;73.30;101249.41;2199394;79;30017;-67
2021/11/06 02:12:27;;;;;;;12.63;8.55;;;;;;;7.99;73.21;101250.45;2228907;79;27642;-67
2021/11/06 02:15:28;;;;;;;12.80;7.47;;;;;;;7.90;73.20;101253.34;2228954;79;29063;-64
2021/11/06 02:18:30;;;;;;;10.20;7.60;;;;;;;7.81;73.20;101261.53;2228921;79;31427;-68
2021/11/06 02:21:36;;;;;;;11.43;8.80;;;;;;;7.73;73.24;101261.70;2228857;79;33007;-70
2021/11/06 02:24:38;;;;;;;12.68;9.05;;;;;;;7.62;73.13;101254.41;2228877;79;29452;-69
2021/11/06 02:27:42;;;;;;;16.00;8.95;;;;;;;7.48;73.14;101258.27;2228667;79;27655;-67
2021/11/06 02:30:44;;;;;;;13.50;9.55;;;;;;;7.36;73.16;101253.20;2228520;79;28878;-67
2021/11/06 02:33:49;;;;;;;14.58;9.23;;;;;;;7.24;73.20;101260.98;2228792;79;31915;-67
2021/11/06 02:36:52;;;;;;;11.40;8.53;;;;;;;7.12;73.29;101259.44;2228551;79;34155;-66
2021/11/06 02:39:54;;;;;;;13.32;9.85;;;;;;;7.01;73.24;101262.77;2204809;79;29392;-65
2021/11/06 02:42:55;;;;;;;13.18;9.43;;;;;;;6.90;73.33;101265.16;2192159;81;27626;-65
2021/11/06 02:45:57;;;;;;;11.45;8.75;;;;;;;6.79;73.41;101268.48;2192514;81;28668;-64
2021/11/06 02:49:02;;;;;;;13.90;9.55;;;;;;;6.68;73.44;101266.91;2192079;81;32258;-64
2021/11/06 02:52:15;;;;;;;12.60;9.38;;;;;;;6.59;73.54;101268.86;2158257;81;30584;-66
2021/11/06 02:55:21;;;;;;;15.10;9.43;;;;;;;6.50;73.63;101268.09;2129498;82;28935;-66
2021/11/06 02:58:32;;;;;;;12.50;9.48;;;;;;;6.40;73.68;101267.83;2192336;81;27742;-66
2021/11/06 03:01:42;;;;;;;12.15;9.00;;;;;;;6.33;73.78;101268.83;2159091;81;27601;-66
2021/11/06 03:04:50;;;;;;;14.10;9.40;;;;;;;6.24;73.85;101268.52;2145072;82;28303;-66
2021/11/06 03:08:04;;;;;;;15.32;10.45;;;;;;;6.16;73.96;101271.30;2158731;81;29864;-66
2021/11/06 03:11:11;;;;;;;13.55;9.55;;;;;;;6.10;74.04;101267.86;2160921;81;28983;-65
2021/11/06 03:14:27;;;;;;;10.80;8.33;;;;;;;6.04;74.19;101275.49;2158057;82;27622;-66
2021/11/06 03:17:37;;;;;;;13.62;8.58;;;;;;;5.98;74.26;101275.53;2145779;82;28544;-65
2021/11/06 03:20:43;;;;;;;14.68;10.98;;;;;;;5.93;74.28;101280.93;2160141;81;27880;-62
2021/11/06 03:23:48;;;;;;;16.73;10.40;;;;;;;5.90;74.41;101288.95;2160717;81;33016;-62
2021/11/06 03:26:51;;;;;;;17.17;9.10;;;;;;;5.86;74.40;101290.78;2145507;82;29018;-61
2021/11/06 03:29:53;;;;;;;16.17;10.58;;;;;;;5.81;74.39;101285.97;2160268;81;27643;-62
2021/11/06 03:32:56;;;;;;;13.88;9.40;;;;;;;5.77;74.51;101291.78;2160439;82;28571;-62
2021/11/06 03:35:58;;;;;;;12.43;9.43;;;;;;;5.77;74.55;101291.78;2167618;81;31015;-62
2021/11/06 03:39:00;;;;;;;15.55;9.30;;;;;;;5.78;74.79;101288.23;2195353;81;33847;-61
2021/11/06 03:42:05;;;;;;;12.85;9.25;;;;;;;5.82;74.94;101283.73;2195738;81;29222;-62
2021/11/06 03:45:09;;;;;;;12.43;9.58;;;;;;;5.89;75.14;101291.17;2195545;81;27638;-63
2021/11/06 03:48:10;;;;;;;15.58;10.28;;;;;;;5.95;75.19;101292.89;2195999;81;28649;-63
2021/11/06 03:51:12;;;;;;;14.58;8.45;;;;;;;6.02;75.28;101289.26;2195334;81;32337;-61
2021/11/06 03:54:14;;;;;;;11.70;8.90;;;;;;;6.10;75.31;101295.80;2195917;81;33321;-63
2021/11/06 03:57:16;;;;;;;13.78;9.15;;;;;;;6.18;75.40;101296.58;2195807;81;30153;-61
2021/11/06 04:00:19;;;;;;;16.87;9.43;;;;;;;6.25;75.27;101300.02;2195777;81;27673;-64
2021/11/06 04:03:21;;;;;;;12.75;9.33;;;;;;;6.31;75.47;101287.49;2195947;81;28666;-61
2021/11/06 04:06:30;;;;;;;10.13;7.90;;;;;;;6.37;75.29;101290.50;2184054;81;30446;-66
2021/11/06 04:09:27;;;;;;;13.25;8.48;;;;;;;6.39;75.21;101296.22;2183530;81;33023;-61
2021/11/06 04:12:28;;;;;;;13.43;8.30;;;;;;;6.40;74.97;101294.45;2195800;81;30126;-63
2021/11/06 04:15:30;;;;;;;11.80;8.33;;;;;;;6.37;74.85;101290.03;2195781;81;27658;-62
2021/11/06 04:18:32;;;;;;;9.83;7.47;;;;;;;6.33;74.77;101286.12;2195710;81;29998;-63
2021/11/06 04:21:34;;;;;;;12.85;9.40;;;;;;;6.28;74.63;101293.33;2195615;81;31486;-66
2021/11/06 04:24:39;;;;;;;14.28;9.38;;;;;;;6.22;74.50;101295.16;2195417;81;33048;-63
2021/11/06 04:27:40;;;;;;;12.78;9.48;;;;;;;6.17;74.44;101294.34;2195308;80;30246;-62
2021/11/06 04:30:42;;;;;;;15.20;9.03;;;;;;;6.13;74.51;101297.09;2195762;81;27678;-62
2021/11/06 04:33:43;;;;;;;10.85;8.15;;;;;;;6.08;74.58;101294.50;2195749;81;29822;-65
2021/11/06 04:36:46;;;;;;;15.93;9.68;;;;;;;6.06;74.57;101298.50;2176255;81;31378;-63
2021/11/06 04:39:48;;;;;;;10.38;8.40;;;;;;;6.06;74.66;101298.50;2160056;81;33596;-64
2021/11/06 04:42:49;;;;;;;12.13;8.00;;;;;;;6.06;74.57;101294.97;2160097;81;30308;-62
2021/11/06 04:45:51;;;;;;;13.90;8.60;;;;;;;6.04;74.67;101294.11;2160473;81;27803;-67
2021/11/06 04:48:53;;;;;;;13.38;8.60;;;;;;;6.02;74.53;101295.91;2160011;81;30013;-63
2021/11/06 04:51:55;;;;;;;12.63;8.50;;;;;;;5.97;74.47;101301.27;2160161;81;32381;-67
2021/11/06 04:54:57;;;;;;;11.80;8.58;;;;;;;5.92;74.42;101302.67;2160267;81;34261;-67
2021/11/06 04:58:00;;;;;;;14.23;8.28;;;;;;;5.86;74.31;101307.20;2145191;82;31483;-66
2021/11/06 05:01:05;;;;;;;12.98;9.00;;;;;;;5.80;74.29;101308.13;2160288;81;27673;-65
2021/11/06 05:04:08;;;;;;;12.33;8.73;;;;;;;5.71;74.21;101302.49;2068813;86;27798;-68
2021/11/06 05:07:10;;;;;;;11.38;8.10;;;;;;;5.63;74.16;101301.73;2079423;84;31968;-68
2021/11/06 05:10:12;;;;;;;13.53;8.45;;;;;;;5.54;74.22;101305.38;2068945;86;33285;-67
2021/11/06 05:13:14;;;;;;;11.80;8.63;;;;;;;5.47;74.21;101305.02;2068446;86;29942;-65
2021/11/06 05:16:19;;;;;;;15.00;8.05;;;;;;;5.40;74.17;101316.63;2068871;86;27861;-63
2021/11/06 05:19:21;;;;;;;12.53;7.28;;;;;;;5.31;74.22;101315.83;2095341;84;29298;-64
2021/11/06 05:22:24;;;;;;;13.25;7.78;;;;;;;5.24;74.24;101319.47;2097761;84;32257;-66
2021/11/06 05:25:26;;;;;;;13.40;7.80;;;;;;;5.18;74.23;101330.14;2098068;84;32966;-67
2021/11/06 05:28:27;;;;;;;11.33;6.67;;;;;;;5.12;74.33;101341.72;2083258;84;29458;-67
2021/11/06 05:31:30;;;;;;;10.65;7.20;;;;;;;5.07;74.48;101342.66;2068599;86;27811;-64
2021/11/06 05:34:34;;;;;;;8.93;6.28;;;;;;;5.04;74.51;101342.69;2068773;86;28676;-68
2021/11/06 05:37:37;;;;;;;8.63;6.45;;;;;;;4.97;74.50;101339.22;2074249;84;31181;-67
2021/11/06 05:40:39;;;;;;;14.35;7.85;;;;;;;4.92;74.51;101339.70;2074825;84;34027;-67
2021/11/06 05:43:40;;;;;;;9.95;6.90;;;;;;;4.86;74.53;101344.19;2098103;84;30177;-68
2021/11/06 05:46:49;;;;;;;9.80;6.17;;;;;;;4.84;74.60;101346.41;2098074;84;27844;-65
2021/11/06 05:49:51;;;;;;;8.53;5.55;;;;;;;4.81;74.71;101339.79;2098029;84;28657;-69
2021/11/06 05:52:52;;;;;;;11.12;6.35;;;;;;;4.79;74.81;101342.94;2094228;84;32262;-69
2021/11/06 05:55:54;;;;;;;10.18;6.03;;;;;;;4.79;74.90;101345.59;2068326;85;33256;-70
2021/11/06 05:58:57;;;;;;;8.88;5.72;;;;;;;4.77;74.93;101344.72;2068700;86;29909;-69
2021/11/06 06:02:00;;;;;;;9.03;6.45;;;;;;;4.76;74.94;101354.44;2069117;84;27698;-70
2021/11/06 06:05:08;;;;;;;8.23;5.75;;;;;;;4.75;74.88;101358.45;2068857;86;29681;-67
2021/11/06 06:08:24;;;;;;;7.87;5.67;;;;;;;4.74;74.88;101358.87;2133368;82;27810;-67
2021/11/06 06:11:26;;;;;;;9.80;5.85;;;;;;;4.73;74.91;101365.53;2145543;81;32964;-67
2021/11/06 06:14:28;;;;;;;8.13;5.72;;;;;;;4.74;74.94;101365.97;2123304;83;29928;-69
2021/11/06 06:17:30;;;;;;;7.75;5.30;;;;;;;4.74;74.94;101364.64;2123440;83;27708;-65
2021/11/06 06:20:34;;;;;;;9.33;5.53;;;;;;;4.74;74.91;101369.95;2123666;82;29882;-66
2021/11/06 06:23:36;;;;;;;8.13;5.87;;;;;;;4.76;74.93;101365.52;2130827;83;31015;-67
2021/11/06 06:26:41;;;;;;;11.40;6.60;;;;;;;4.76;74.97;101369.04;2143290;83;33472;-66
2021/11/06 06:29:45;;;;;;;14.90;6.15;;;;;;;4.79;75.00;101365.03;2143097;83;30166;-66
2021/11/06 06:32:51;;;;;;;12.90;7.03;;;;;;;4.82;74.99;101370.33;2143696;83;27736;-66
2021/11/06 06:35:53;;;;;;;10.38;6.28;;;;;;;4.87;75.09;101378.25;2143282;83;28654;-67
2021/11/06 06:38:55;;;;;;;11.08;6.87;;;;;;;4.95;75.11;101375.52;2131084;83;31760;-66
2021/11/06 06:41:57;;;;;;;11.45;6.17;;;;;;;5.01;75.18;101376.81;2115053;84;33527;-66
2021/11/06 06:44:59;;;;;;;10.70;7.03;;;;;;;5.08;75.25;101378.49;2130801;83;29490;-66
2021/11/06 06:48:01;;;;;;;12.68;6.22;;;;;;;5.15;75.19;101375.33;2115258;84;27753;-66
2021/11/06 06:51:03;;;;;;;10.25;5.85;;;;;;;5.24;75.27;101379.23;2141397;82;29607;-66
2021/11/06 06:54:05;;;;;;;12.13;6.03;;;;;;;5.33;75.28;101383.12;2148923;82;31053;-66
2021/11/06 06:57:07;;;;;;;8.68;6.17;;;;;;;5.44;75.26;101385.66;2146101;82;34470;-67
2021/11/06 07:00:12;;;;;;;11.05;6.87;;;;;;;5.56;75.33;101389.08;2141954;82;31320;-66
2021/11/06 07:03:14;;;;;;;10.67;6.57;;;;;;;5.69;75.41;101381.41;2131200;83;27796;-67
2021/11/06 07:06:16;;;;;;;9.23;5.90;;;;;;;5.85;75.32;101386.55;2115080;84;29924;-67
2021/11/06 07:09:19;;;;;;;8.50;5.75;;;;;;;6.03;75.53;101387.67;2130475;83;31047;-66
2021/11/06 07:12:22;;;;;;;10.78;6.58;;;;;;;6.36;75.55;101388.55;2114697;84;33894;-64
2021/11/06 07:15:25;;;;;;;9.78;5.85;;;;;;;6.74;75.32;101387.52;2131031;83;29145;-70
2021/11/06 07:18:27;;;;;;;7.50;5.60;;;;;;;7.13;75.21;101386.44;2130600;83;28011;-64
2021/11/06 07:21:29;;;;;;;11.48;6.35;;;;;;;7.53;74.89;101380.81;2130810;83;30000;-68
2021/11/06 07:24:31;;;;;;;14.30;8.83;;;;;;;7.95;74.72;101380.83;2130405;83;32380;-68
2021/11/06 07:27:37;;;;;;;10.70;6.67;;;;;;;8.39;74.40;101386.10;2173180;80;32985;-67
2021/11/06 07:30:39;;;;;;;10.78;6.35;;;;;;;8.85;74.28;101389.98;2191815;81;29823;-62
2021/11/06 07:33:42;;;;;;;12.43;5.58;;;;;;;9.32;73.75;101398.56;2170417;81;28060;-69
2021/11/06 07:36:51;;;;;;;9.30;5.58;;;;;;;9.75;73.32;101392.94;2191730;81;28818;-68
2021/11/06 07:40:06;;;;;;;8.88;6.40;;;;;;;10.16;72.64;101394.39;2169856;81;31135;-67
2021/11/06 07:43:12;;;;;;;10.10;5.28;;;;;;;10.59;72.31;101394.89;2156585;82;35180;-67
2021/11/06 07:46:14;;;;;;;9.63;6.12;;;;;;;11.01;71.91;101387.27;2086268;84;29029;-62
2021/11/06 07:49:19;;;;;;;10.23;5.30;;;;;;;11.40;71.48;101390.85;2086867;85;27846;-69
2021/11/06 07:52:25;;;;;;;;;;;;;;;11.72;70.66;101390.15;2089863;85;28750;-67
2021/11/06 07:55:27;;;;;;;7.75;5.08;;;;;;;12.00;70.23;101384.66;2086426;85;32254;-64
2021/11/06 07:58:45;;;;;;;;;;;;;;;;;;;;;
2021/11/06 08:01:49;;;;;;;7.70;4.90;;;;;;;12.30;68.84;101382.19;2081375;83;28096;-65
2021/11/06 08:04:46;;;;;;;8.03;5.58;;;;;;;12.35;68.58;101382.86;2084416;85;27786;-66
2021/11/06 08:07:54;;;;;;;12.65;5.25;;;;;;;12.33;67.94;101384.73;2083015;85;28653;-67
2021/11/06 08:11:00;;;;;;;8.23;5.05;;;;;;;12.37;68.03;101389.54;2083918;85;27929;-67
2021/11/06 08:14:01;;;;;;;7.90;5.03;;;;;;;12.43;67.59;101392.86;2087427;85;33045;-63
2021/11/06 08:17:09;;;;;;;8.55;5.40;;;;;;;12.46;67.36;101400.80;2086705;85;30139;-64
2021/11/06 08:20:12;;;;;;;11.10;5.78;;;;;;;12.43;67.09;101394.20;2064297;85;28161;-62
2021/11/06 08:23:17;;;;;;;9.20;4.85;;;;;;;12.41;67.10;101404.61;2086641;85;28677;-65
2021/11/06 08:26:19;;;;;;;9.95;4.90;;;;;;;12.34;66.49;101399.92;2104128;83;33201;-62
2021/11/06 08:29:21;;;;;;;9.28;4.97;;;;;;;12.24;66.29;101399.44;2103542;83;33782;-64
2021/11/06 08:32:23;;;;;;;10.30;5.67;;;;;;;12.17;66.64;101400.59;2065711;86;29816;-62
2021/11/06 08:35:27;;;;;;;8.33;5.55;;;;;;;12.16;66.59;101410.93;2090865;84;27766;-62
2021/11/06 08:38:32;;;;;;;9.03;5.10;;;;;;;12.17;66.33;101411.34;2072666;85;29063;-63
2021/11/06 08:41:35;;;;;;;8.33;5.78;;;;;;;12.12;65.73;101413.31;2052315;86;31052;-64
2021/11/06 08:44:57;;;;;;;12.82;6.75;;;;;;;12.06;65.75;101412.23;2052289;86;33097;-63
2021/11/06 08:47:59;;;;;;;10.23;6.10;;;;;;;12.06;65.91;101413.09;2006926;85;30261;-67
2021/11/06 08:51:01;;;;;;;11.00;5.80;;;;;;;12.08;65.88;101407.19;2062084;85;28259;-63
2021/11/06 08:54:03;;;;;;;9.28;5.55;;;;;;;12.15;65.71;101414.55;2053506;86;29615;-64
2021/11/06 08:57:06;;;;;;;9.33;5.22;;;;;;;12.19;65.26;101416.19;2054435;85;32009;-67
2021/11/06 09:00:14;;;;;;;9.93;5.58;;;;;;;12.24;65.58;101419.59;2030069;86;32848;-67
2021/11/06 09:03:21;;;;;;;11.08;4.92;;;;;;;12.38;65.43;101412.80;2054426;85;29094;-67
2021/11/06 09:06:23;;;;;;;9.90;5.40;;;;;;;12.49;65.06;101415.92;2082353;85;27740;-63
2021/11/06 09:09:25;;;;;;;10.95;4.97;;;;;;;12.59;64.83;101417.78;2097829;84;28635;-65
2021/11/06 09:12:28;;;;;;;9.55;5.28;;;;;;;12.70;65.07;101411.97;2068951;86;32197;-66
2021/11/06 09:15:30;;;;;;;9.05;5.15;;;;;;;12.81;64.52;101413.73;2055018;86;33030;-65
2021/11/06 09:18:37;;;;;;;11.65;4.78;;;;;;;12.94;64.87;101416.81;2054973;86;30211;-67
2021/11/06 09:21:40;;;;;;;7.92;4.92;;;;;;;13.03;64.23;101416.41;2054716;86;28261;-66
2021/11/06 09:24:41;;;;;;;8.20;4.33;;;;;;;13.09;64.02;101417.95;2078806;85;28825;-66
2021/11/06 09:27:43;;;;;;;8.55;4.58;;;;;;;13.12;63.67;101419.18;2057915;85;31375;-66
2021/11/06 09:30:45;;;;;;;10.60;5.12;;;;;;;13.15;63.48;101424.44;2069443;86;33349;-67
2021/11/06 09:33:48;;;;;;;10.50;5.08;;;;;;;13.18;63.19;101422.97;2069214;86;30224;-66
2021/11/06 09:36:50;;;;;;;10.72;4.90;;;;;;;13.17;62.80;101433.33;2055381;86;27631;-67
2021/11/06 09:39:54;;;;;;;8.33;4.10;;;;;;;13.11;62.71;101423.30;2054918;86;29910;-67
2021/11/06 09:42:55;;;;;;;7.28;4.08;;;;;;;12.97;62.33;101425.20;2055580;86;32415;-67
2021/11/06 09:45:59;;;;;;;5.97;3.47;;;;;;;12.83;62.27;101423.97;2054519;86;33360;-66
2021/11/06 09:49:01;;;;;;;11.07;2.83;;;;;;;12.69;62.28;101429.90;2052080;86;29080;-66
2021/11/06 09:52:04;;;;;;;7.47;2.83;;;;;;;12.61;61.95;101438.27;2051966;86;27735;-67
2021/11/06 09:55:07;;;;;;;5.47;2.98;;;;;;;12.52;61.92;101433.28;2051828;86;29501;-66
2021/11/06 09:58:09;;;;;;;4.58;2.17;;;;;;;12.50;62.17;101435.59;2051933;86;31901;-66
2021/11/06 10:01:12;;;;;;;3.00;2.42;;;;;;;12.46;61.94;101433.51;2065757;86;33232;-67
2021/11/06 10:04:14;;;;;;;5.45;2.37;;;;;;;12.43;61.82;101426.45;2040955;86;29442;-66
2021/11/06 10:07:24;;;;;;;6.65;2.45;;;;;;;12.40;61.59;101425.70;2074531;85;27755;-63
2021/11/06 10:10:27;;;;;;;3.50;2.50;;;;;;;12.40;61.82;101421.19;2080929;85;29518;-62
2021/11/06 10:13:29;;;;;;;3.67;1.90;;;;;;;12.42;61.73;101426.04;2081175;85;31183;-61
2021/11/06 10:16:55;;;;;;;6.72;2.10;;;;;;;12.42;61.37;101427.38;2059564;86;34183;-62
2021/11/06 10:19:57;;;;;;;6.03;2.20;;;;;;;12.41;61.58;101428.80;2081030;85;29256;-62
2021/11/06 10:23:07;;;;;;;5.65;2.83;;;;;;;12.33;61.40;101419.66;2081421;85;27674;-61
2021/11/06 10:26:19;;;;;;;5.17;2.10;;;;;;;12.23;61.22;101415.59;2059870;86;28838;-66
2021/11/06 10:29:21;;;;;;;5.55;3.83;;;;;;;12.12;61.01;101416.90;2081229;85;31491;-66
2021/11/06 10:32:23;;;;;;;4.15;2.00;;;;;;;11.97;60.67;101406.70;2059096;86;33840;-63
2021/11/06 10:35:28;;;;;;;7.83;2.25;;;;;;;11.81;60.81;101407.73;2081586;85;30214;-62
2021/11/06 10:38:30;;;;;;;6.28;3.08;;;;;;;11.75;61.13;101408.83;2081874;85;27618;-63
2021/11/06 10:41:35;;;;;;;9.05;4.35;;;;;;;11.72;61.05;101404.05;2080917;85;29874;-63
2021/11/06 10:44:39;;;;;;;5.42;2.55;;;;;;;11.70;61.20;101401.41;2081380;85;31065;-62
2021/11/06 10:48:05;;;;;;;2.77;2.10;;;;;;;11.68;60.91;101405.95;2053090;85;33041;-65
2021/11/06 10:51:09;;;;;;;5.78;2.00;;;;;;;11.59;60.67;101395.08;2041286;86;29868;-62
2021/11/06 10:54:11;;;;;;;5.95;2.75;;;;;;;11.54;60.68;101397.08;2041936;87;27672;-62
2021/11/06 10:57:16;;;;;;;13.40;6.53;;;;;;;11.50;60.68;101400.31;2041270;87;28770;-63
2021/11/06 11:00:19;;;;;;;11.65;5.53;;;;;;;11.51;60.76;101402.07;2034179;87;31044;-64
2021/11/06 11:03:27;;;;;;;9.98;5.60;;;;;;;11.53;60.73;101398.87;2035031;87;32986;-62
2021/11/06 11:06:37;;;;;;;6.87;3.22;;;;;;;11.58;60.65;101387.99;2035259;87;29024;-62
2021/11/06 11:09:44;;;;;;;7.95;4.00;;;;;;;11.66;60.52;101388.57;2034936;87;27697;-65
2021/11/06 11:13:07;;;;;;;5.72;3.37;;;;;;;11.70;60.54;101392.91;2034832;87;30084;-63
2021/11/06 11:16:12;;;;;;;6.95;2.75;;;;;;;11.77;60.36;101392.20;2035298;87;30600;-64
2021/11/06 11:19:13;;;;;;;6.85;2.67;;;;;;;11.82;60.34;101383.98;2035303;87;32967;-64
2021/11/06 11:22:26;;;;;;;5.25;2.75;;;;;;;11.84;60.00;101383.45;2034781;87;30411;-66
2021/11/06 11:25:29;;;;;;;6.72;3.62;;;;;;;11.84;59.87;101383.45;2012396;87;27641;-62
2021/11/06 11:28:31;;;;;;;10.63;4.40;;;;;;;11.86;60.02;101382.94;2034790;87;29860;-64
2021/11/06 11:31:33;;;;;;;6.10;3.65;;;;;;;11.89;59.93;101371.19;2035149;87;32183;-64
2021/11/06 11:34:35;;;;;;;4.17;1.87;;;;;;;11.96;60.08;101381.64;2023850;87;34195;-65
2021/11/06 11:37:37;;;;;;;3.70;1.95;;;;;;;11.95;59.74;101374.52;2020963;87;30206;-62
2021/11/06 11:40:44;;;;;;;3.05;1.70;;;;;;;11.96;59.69;101373.58;2021003;87;27734;-62
2021/11/06 11:44:28;;;;;;;5.85;2.33;;;;;;;11.95;59.30;101363.77;2021506;87;29633;-64
2021/11/06 11:47:41;;;;;;;8.18;2.87;;;;;;;12.00;59.69;101364.52;2020403;87;31441;-65
2021/11/06 11:50:45;;;;;;;7.72;2.72;;;;;;;12.23;59.82;101363.20;1997534;89;33031;-64
2021/11/06 11:53:48;;;;;;;20.85;7.40;;;;;;;12.46;59.49;101351.08;1996716;89;29824;-62
2021/11/06 11:56:55;;;;;;;5.37;1.82;;;;;;;12.69;59.22;101349.23;1973799;89;27684;-61
2021/11/06 11:59:58;;;;;;;4.90;2.10;;;;;;;12.87;58.66;101357.02;1995044;89;28897;-61
2021/11/06 12:03:02;;;;;;;10.23;3.80;;;;;;;13.01;58.20;101344.80;1997611;89;31193;-66
2021/11/06 12:06:30;;;;;;;9.75;3.10;;;;;;;13.15;57.58;101346.90;1987144;89;34290;-65
2021/11/06 12:09:35;;;;;;;2.77;1.47;;;;;;;13.30;56.63;101342.64;1992393;89;30125;-63
2021/11/06 12:12:39;;;;;;;16.87;6.22;;;;;;;13.42;56.29;101342.60;1987122;89;27781;-64
2021/11/06 12:16:06;;;;;;;19.40;7.78;;;;;;;13.52;56.29;101346.62;1987055;89;28687;-64
2021/11/06 12:19:08;;;;;;;17.37;6.50;;;;;;;13.60;56.44;101353.89;1986506;89;31452;-64
2021/11/06 12:22:28;;;;;;;14.13;5.17;;;;;;;13.68;56.00;101347.66;1986165;88;34301;-65
2021/11/06 12:25:30;;;;;;;27.58;10.88;;;;;;;13.70;54.88;101347.61;2021399;88;30081;-66
2021/11/06 12:28:32;;;;;;;7.53;3.22;;;;;;;13.77;55.55;101338.28;2021546;88;27874;-65
2021/11/06 12:31:42;;;;;;;3.10;1.27;;;;;;;13.81;54.85;101325.09;1993750;88;29574;-65
2021/11/06 12:34:50;;;;;;;3.20;1.72;;;;;;;13.83;54.35;101324.55;2021986;88;31981;-64
2021/11/06 12:37:56;;;;;;;3.52;2.05;;;;;;;13.86;54.58;101325.35;1988116;89;32828;-64
2021/11/06 12:40:58;;;;;;;2.05;0.70;;;;;;;13.88;54.58;101325.67;2002792;88;29228;-66
2021/11/06 12:44:02;;;;;;;3.83;1.35;;;;;;;13.89;54.38;101330.60;2020985;88;27724;-65
2021/11/06 12:47:09;;;;;;;3.10;1.62;;;;;;;13.90;54.13;101320.23;2045691;85;28728;-64
2021/11/06 12:50:17;;;;;;;1.82;1.47;;;;;;;13.86;53.49;101319.97;2008868;87;32123;-69
2021/11/06 12:53:29;;;;;;;2.08;1.15;;;;;;;13.82;53.77;101320.56;2036462;87;33010;-70
2021/11/06 12:56:53;;;;;;;1.52;0.90;;;;;;;13.82;53.84;101320.56;2036239;87;29477;-64
2021/11/06 12:59:55;;;;;;;1.85;0.60;;;;;;;13.85;53.81;101318.22;2036384;87;27743;-64
2021/11/06 13:03:01;;;;;;;0.80;0.53;;;;;;;13.79;53.78;101318.03;2010370;87;28695;-65
2021/11/06 13:06:23;;;;;;;0.33;0.33;;;;;;;13.73;53.30;101322.35;2066826;86;31044;-70
2021/11/06 13:09:27;;;;;;;1.60;0.50;;;;;;;13.71;53.53;101317.50;2026409;86;32977;-66
2021/11/06 13:12:29;;;;;;;4.70;1.00;;;;;;;13.66;53.45;101313.69;2032622;87;30316;-64
2021/11/06 13:15:44;;;;;;;2.27;0.80;;;;;;;13.56;53.19;101310.55;2037742;87;27823;-66
2021/11/06 13:18:46;;;;;;;6.10;4.17;;;;;;;13.51;53.16;101305.38;2037018;87;29597;-65
2021/11/06 13:21:48;;;;;;;4.87;2.80;;;;;;;13.43;52.87;101299.45;2037895;87;32113;-64
2021/11/06 13:24:59;;;;;;;2.27;1.85;;;;;;;13.30;52.82;101300.92;2038437;87;33682;-65
2021/11/06 13:28:25;;;;;;;1.92;1.70;;;;;;;13.18;52.93;101294.27;2036189;87;30239;-63
2021/11/06 13:31:28;;;;;;;3.40;2.52;;;;;;;13.10;53.19;101292.41;2036797;87;27711;-66
2021/11/06 13:34:38;;;;;;;2.67;1.70;;;;;;;12.97;53.03;101294.75;2036503;87;29159;-68
2021/11/06 13:37:40;;;;;;;4.55;3.20;;;;;;;12.84;53.25;101297.98;2036152;87;31136;-65
2021/11/06 13:41:02;;;;;;;3.27;1.92;;;;;;;12.69;52.68;101299.50;2045627;87;33176;-66
2021/11/06 13:44:10;;;;;;;24.75;11.55;;;;;;;12.55;52.81;101295.18;2046511;87;29892;-67
2021/11/06 13:47:12;;;;;;;3.20;2.20;;;;;;;12.39;53.01;101292.27;2053635;85;27701;-70
2021/11/06 13:50:20;;;;;;;4.65;3.45;;;;;;;12.24;52.99;101287.05;2064595;85;29186;-69
2021/11/06 13:53:30;;;;;;;5.50;3.02;;;;;;;12.12;53.30;101285.27;2055368;85;31105;-69
2021/11/06 13:57:00;;;;;;;18.67;8.93;;;;;;;12.03;53.41;101286.97;2054685;86;33419;-65
2021/11/06 14:00:12;;;;;;;3.95;2.50;;;;;;;11.94;53.59;101285.48;2062602;85;28298;-68
2021/11/06 14:03:16;;;;;;;3.98;2.75;;;;;;;11.83;53.44;101280.53;2070239;86;27692;-64
2021/11/06 14:06:18;;;;;;;3.40;1.92;;;;;;;11.77;53.40;101282.59;2070469;86;28747;-64
2021/11/06 14:09:23;;;;;;;5.25;2.60;;;;;;;11.70;53.38;101282.84;2072888;85;31105;-66
2021/11/06 14:12:39;;;;;;;6.58;1.90;;;;;;;11.62;53.05;101283.59;2082332;85;33335;-73
2021/11/06 14:15:46;;;;;;;38.48;17.42;;;;;;;11.53;53.38;101272.73;2081817;84;29161;-65
2021/11/06 14:18:49;;;;;;;28.32;11.70;;;;;;;11.47;53.80;101278.36;2081593;84;27797;-71
2021/11/06 14:22:02;;;;;;;56.90;22.42;;;;;;;11.43;53.95;101275.82;2081934;85;29629;-69